createdAt,value
2018-07-24T00:01:53.913Z,92.20
2018-07-24T00:09:18.909Z,92.40
2018-07-24T00:14:15.993Z,92.50
2018-07-24T00:16:44.292Z,92.60
2018-07-24T00:19:12.715Z,92.70
2018-07-24T00:26:37.298Z,92.90
2018-07-24T00:29:05.786Z,92.90
2018-07-24T00:31:34.116Z,92.90
2018-07-24T00:34:08.551Z,93.00
2018-07-24T00:36:39.092Z,93.00
2018-07-24T00:39:08.012Z,93.10
2018-07-24T00:41:36.638Z,93.20
2018-07-24T00:44:05.391Z,93.30
2018-07-24T00:46:33.583Z,93.40
2018-07-24T00:49:02.114Z,93.80
2018-07-24T00:51:30.450Z,93.50
2018-07-24T00:54:02.382Z,93.70
2018-07-24T00:56:30.702Z,93.80
2018-07-24T00:58:59.877Z,93.90
2018-07-24T01:01:29.006Z,93.80
2018-07-24T01:06:27.342Z,94.00
2018-07-24T01:08:55.632Z,94.10
2018-07-24T01:13:51.946Z,94.00
2018-07-24T01:16:20.442Z,94.00
2018-07-24T01:18:48.825Z,94.70
2018-07-24T01:21:17.236Z,94.40
2018-07-24T01:23:45.413Z,94.50
2018-07-24T01:26:13.716Z,94.40
2018-07-24T01:28:42.036Z,94.40
2018-07-24T01:31:10.411Z,94.40
2018-07-24T01:33:38.702Z,94.60
2018-07-24T01:36:07.116Z,94.60
2018-07-24T01:38:35.579Z,94.70
2018-07-24T01:41:10.063Z,94.80
2018-07-24T01:43:38.372Z,94.90
2018-07-24T01:46:06.863Z,94.80
2018-07-24T01:48:35.146Z,94.90
2018-07-24T01:51:05.265Z,95.00
2018-07-24T01:53:33.698Z,95.20
2018-07-24T01:56:01.893Z,95.30
2018-07-24T01:58:30.267Z,95.30
2018-07-24T02:06:00.312Z,95.80
2018-07-24T02:08:28.668Z,95.60
2018-07-24T02:10:57.056Z,95.60
2018-07-24T02:13:25.268Z,95.60
2018-07-24T02:15:53.595Z,95.60
2018-07-24T02:20:53.664Z,95.70
2018-07-24T02:23:22.062Z,95.70
2018-07-24T02:25:50.342Z,95.70
2018-07-24T02:30:48.882Z,96.10
2018-07-24T02:33:17.162Z,95.70
2018-07-24T02:35:45.418Z,95.80
2018-07-24T02:38:13.567Z,95.90
2018-07-24T02:43:15.907Z,95.90
2018-07-24T02:45:44.208Z,96.00
2018-07-24T02:48:12.582Z,96.20
2018-07-24T02:50:48.773Z,96.20
2018-07-24T02:53:17.189Z,96.60
2018-07-24T02:55:45.678Z,96.30
2018-07-24T02:58:14.163Z,96.30
2018-07-24T03:00:42.332Z,96.40
2018-07-24T03:03:10.475Z,96.40
2018-07-24T03:05:38.770Z,96.50
2018-07-24T03:08:07.152Z,96.60
2018-07-24T03:10:35.443Z,96.60
2018-07-24T03:13:03.718Z,96.60
2018-07-24T03:15:32.144Z,96.60
2018-07-24T03:18:00.566Z,96.50
2018-07-24T03:20:28.756Z,96.60
2018-07-24T03:22:57.060Z,96.60
2018-07-24T03:25:31.242Z,96.70
2018-07-24T03:27:59.679Z,96.60
2018-07-24T03:30:27.866Z,96.70
2018-07-24T03:40:21.065Z,96.90
2018-07-24T03:45:17.368Z,97.00
2018-07-24T03:47:45.645Z,97.00
2018-07-24T03:57:38.624Z,96.90
2018-07-24T04:02:38.730Z,96.80
2018-07-24T04:05:07.110Z,96.80
2018-07-24T04:07:36.328Z,96.80
2018-07-24T04:10:04.522Z,96.90
2018-07-24T04:12:37.151Z,96.90
2018-07-24T04:15:06.304Z,96.90
2018-07-24T04:17:35.084Z,96.80
2018-07-24T04:20:03.428Z,96.70
2018-07-24T04:22:31.825Z,96.90
2018-07-24T04:27:27.992Z,97.10
2018-07-24T04:29:56.479Z,95.70
2018-07-24T04:32:24.694Z,94.80
2018-07-24T04:34:52.797Z,94.70
2018-07-24T04:37:21.831Z,93.60
2018-07-24T04:39:50.539Z,91.90
2018-07-24T04:42:19.005Z,90.00
2018-07-24T04:47:15.524Z,82.00
2018-07-24T04:54:50.719Z,69.80
2018-07-24T04:57:19.259Z,66.90
2018-07-24T04:59:47.530Z,63.30
2018-07-24T05:02:19.516Z,60.20
2018-07-24T05:04:47.940Z,57.90
2018-07-24T05:07:16.439Z,55.70
2018-07-24T05:09:44.949Z,53.60
2018-07-24T05:12:13.302Z,51.80
2018-07-24T05:14:41.612Z,50.70
2018-07-24T05:17:10.126Z,49.60
2018-07-24T05:24:38.105Z,47.30
2018-07-24T05:27:10.161Z,46.00
2018-07-24T05:29:38.457Z,44.80
2018-07-24T05:32:07.666Z,43.90
2018-07-24T05:37:10.913Z,42.10
2018-07-24T05:42:07.713Z,40.60
2018-07-24T05:49:32.328Z,37.80
2018-07-24T05:52:00.604Z,36.50
2018-07-24T05:56:58.409Z,34.60
2018-07-24T05:59:26.836Z,33.90
2018-07-24T06:01:55.458Z,33.10
2018-07-24T06:04:24.558Z,32.00
2018-07-24T06:06:52.962Z,31.20
2018-07-24T06:09:21.238Z,30.50
2018-07-24T06:14:17.421Z,29.40
2018-07-24T06:16:46.048Z,29.90
2018-07-24T06:19:14.650Z,29.70
2018-07-24T06:21:43.105Z,29.40
2018-07-24T06:24:11.329Z,29.20
2018-07-24T06:26:39.854Z,29.20
2018-07-24T06:29:08.288Z,29.30
2018-07-24T06:31:36.651Z,29.10
2018-07-24T06:34:05.167Z,29.30
2018-07-24T06:36:33.551Z,29.50
2018-07-24T06:41:30.132Z,29.00
2018-07-24T06:48:58.602Z,28.30
2018-07-24T06:53:55.107Z,28.10
2018-07-24T06:56:23.582Z,27.10
2018-07-24T06:58:52.109Z,26.90
2018-07-24T07:01:20.548Z,27.30
2018-07-24T07:03:48.801Z,26.60
2018-07-24T07:06:17.415Z,26.30
2018-07-24T07:08:45.831Z,26.10
2018-07-24T07:11:17.893Z,25.90
2018-07-24T07:16:14.101Z,25.00
2018-07-24T07:18:42.443Z,24.60
2018-07-24T07:21:10.963Z,24.30
2018-07-24T07:23:39.380Z,23.70
2018-07-24T07:26:07.692Z,22.90
2018-07-24T07:28:36.070Z,22.90
2018-07-24T07:33:32.471Z,22.40
2018-07-24T07:36:00.766Z,22.20
2018-07-24T07:38:29.166Z,22.10
2018-07-24T07:40:57.670Z,21.90
2018-07-24T07:43:25.971Z,21.70
2018-07-24T07:45:54.287Z,21.80
2018-07-24T07:48:22.765Z,21.70
2018-07-24T07:50:51.196Z,21.60
2018-07-24T07:53:19.859Z,21.60
2018-07-24T07:58:15.906Z,21.60
2018-07-24T08:00:43.831Z,21.40
2018-07-24T08:05:39.577Z,21.20
2018-07-24T08:08:07.503Z,21.20
2018-07-24T08:13:03.333Z,21.10
2018-07-24T08:15:31.285Z,21.60
2018-07-24T08:17:59.624Z,21.50
2018-07-24T08:20:28.031Z,21.80
2018-07-24T08:22:57.612Z,21.90
2018-07-24T08:25:25.985Z,22.10
2018-07-24T08:30:24.758Z,22.60
2018-07-24T08:32:53.041Z,23.00
2018-07-24T08:35:21.986Z,23.20
2018-07-24T08:37:50.865Z,24.10
2018-07-24T08:40:19.784Z,25.30
2018-07-24T08:42:48.483Z,26.40
2018-07-24T08:45:17.267Z,27.40
2018-07-24T08:47:45.606Z,28.50
2018-07-24T08:50:14.213Z,29.50
2018-07-24T08:52:43.267Z,30.50
2018-07-24T08:55:11.980Z,31.70
2018-07-24T08:57:40.187Z,32.40
2018-07-24T09:00:09.095Z,33.30
2018-07-24T09:02:37.211Z,34.10
2018-07-24T09:07:33.685Z,35.30
2018-07-24T09:10:02.308Z,35.70
2018-07-24T09:12:30.515Z,36.10
2018-07-24T09:14:58.771Z,36.60
2018-07-24T09:17:27.301Z,37.10
2018-07-24T09:19:55.603Z,37.30
2018-07-24T09:27:20.555Z,38.20
2018-07-24T09:29:49.415Z,38.00
2018-07-24T09:32:17.716Z,37.90
2018-07-24T09:34:45.990Z,38.20
2018-07-24T09:42:10.276Z,38.10
2018-07-24T09:47:06.734Z,38.80
2018-07-24T09:49:35.117Z,38.70
2018-07-24T09:52:03.580Z,38.90
2018-07-24T09:54:31.856Z,38.90
2018-07-24T09:59:29.025Z,39.50
2018-07-24T10:01:57.383Z,39.20
2018-07-24T10:04:25.639Z,39.30
2018-07-24T10:06:54.255Z,39.90
2018-07-24T10:09:23.174Z,39.80
2018-07-24T10:14:19.791Z,39.50
2018-07-24T10:16:48.238Z,39.20
2018-07-24T10:19:17.302Z,39.30
2018-07-24T10:21:45.682Z,39.30
2018-07-24T10:24:14.184Z,39.60
2018-07-24T10:29:11.157Z,39.40
2018-07-24T10:31:39.712Z,39.70
2018-07-24T10:34:07.942Z,39.60
2018-07-24T10:36:36.302Z,39.20
2018-07-24T10:39:08.386Z,39.20
2018-07-24T10:41:36.874Z,39.30
2018-07-24T10:46:33.376Z,39.40
2018-07-24T10:49:01.563Z,39.40
2018-07-24T10:57:21.619Z,40.10
2018-07-24T10:59:50.491Z,39.40
2018-07-24T11:02:18.795Z,38.80
2018-07-24T11:09:43.272Z,38.50
2018-07-24T11:14:39.644Z,38.60
2018-07-24T11:17:08.574Z,38.90
2018-07-24T11:19:37.064Z,38.40
2018-07-24T11:22:05.751Z,38.50
2018-07-24T11:24:34.067Z,38.90
2018-07-24T11:27:02.485Z,38.70
2018-07-24T11:29:30.867Z,38.80
2018-07-24T11:31:59.264Z,39.10
2018-07-24T11:34:27.581Z,38.70
2018-07-24T11:44:19.725Z,38.60
2018-07-24T11:46:47.923Z,38.20
2018-07-24T11:49:16.209Z,38.30
2018-07-24T11:51:44.900Z,38.30
2018-07-24T11:54:13.350Z,38.60
2018-07-24T11:56:41.769Z,38.60
2018-07-24T11:59:09.944Z,37.90
2018-07-24T12:04:06.554Z,38.20
2018-07-24T12:06:35.430Z,38.20
2018-07-24T12:09:05.786Z,38.20
2018-07-24T12:11:34.246Z,38.10
2018-07-24T12:14:02.671Z,38.60
2018-07-24T12:16:31.100Z,38.40
2018-07-24T12:18:59.471Z,38.50
2018-07-24T12:21:27.789Z,38.30
2018-07-24T12:26:24.075Z,38.30
2018-07-24T12:28:52.540Z,38.20
2018-07-24T12:31:21.188Z,37.60
2018-07-24T12:33:49.349Z,37.70
2018-07-24T12:36:17.903Z,37.80
2018-07-24T12:38:46.396Z,37.70
2018-07-24T12:41:14.693Z,37.70
2018-07-24T12:43:43.395Z,37.90
2018-07-24T12:46:11.691Z,37.40
2018-07-24T12:48:40.076Z,36.90
2018-07-24T12:51:08.669Z,36.70
2018-07-24T12:53:36.764Z,36.50
2018-07-24T12:56:05.079Z,36.80
2018-07-24T12:58:34.076Z,37.60
2018-07-24T13:03:31.689Z,37.90
2018-07-24T13:08:28.133Z,38.40
2018-07-24T13:10:56.410Z,37.30
2018-07-24T13:13:24.880Z,37.50
2018-07-24T13:15:53.278Z,37.60
2018-07-24T13:18:21.722Z,37.90
2018-07-24T13:20:50.628Z,37.20
2018-07-24T13:23:19.492Z,37.20
2018-07-24T13:25:47.809Z,37.00
2018-07-24T13:28:16.006Z,36.80
2018-07-24T13:33:13.223Z,37.20
2018-07-24T13:35:41.485Z,36.50
2018-07-24T13:38:09.693Z,36.20
2018-07-24T13:40:38.308Z,36.20
2018-07-24T13:43:06.796Z,36.50
2018-07-24T13:45:35.224Z,36.80
2018-07-24T13:48:04.018Z,37.20
2018-07-24T13:50:32.321Z,37.10
2018-07-24T13:53:00.502Z,37.30
2018-07-24T13:57:56.889Z,37.20
2018-07-24T14:02:53.423Z,37.40
2018-07-24T14:05:21.940Z,37.70
2018-07-24T14:07:50.158Z,37.90
2018-07-24T14:10:18.688Z,37.90
2018-07-24T14:12:47.080Z,38.40
2018-07-24T14:15:15.534Z,38.60
2018-07-24T14:17:44.295Z,38.60
2018-07-24T14:20:12.701Z,38.10
2018-07-24T14:25:09.290Z,38.30
2018-07-24T14:27:38.337Z,38.60
2018-07-24T14:30:07.411Z,38.50
2018-07-24T14:32:35.839Z,38.70
2018-07-24T14:35:04.364Z,39.00
2018-07-24T14:37:32.725Z,39.10
2018-07-24T14:40:00.860Z,39.10
2018-07-24T14:42:29.063Z,39.00
2018-07-24T14:44:57.391Z,38.60
2018-07-24T14:47:25.721Z,38.80
2018-07-24T14:52:22.387Z,38.90
2018-07-24T14:54:50.742Z,38.70
2018-07-24T14:57:19.294Z,38.90
2018-07-24T14:59:47.828Z,39.10
2018-07-24T15:02:16.247Z,38.90
2018-07-24T15:04:44.630Z,39.10
2018-07-24T15:07:13.024Z,39.20
2018-07-24T15:09:41.366Z,38.80
2018-07-24T15:12:09.901Z,38.70
2018-07-24T15:17:08.435Z,38.90
2018-07-24T15:22:05.380Z,39.40
2018-07-24T15:24:33.670Z,39.30
2018-07-24T15:27:02.176Z,39.20
2018-07-24T15:29:30.846Z,39.60
2018-07-24T15:31:59.259Z,39.80
2018-07-24T15:36:55.971Z,39.90
2018-07-24T15:39:24.487Z,39.70
2018-07-24T15:41:52.961Z,39.60
2018-07-24T15:49:17.771Z,39.50
2018-07-24T15:51:45.953Z,39.80
2018-07-24T15:56:42.466Z,39.30
2018-07-24T15:59:10.987Z,39.30
2018-07-24T16:01:39.670Z,39.60
2018-07-24T16:04:08.010Z,39.80
2018-07-24T16:06:36.438Z,39.90
2018-07-24T16:09:07.625Z,39.50
2018-07-24T16:11:36.316Z,39.50
2018-07-24T16:14:04.724Z,39.50
2018-07-24T16:16:33.478Z,39.40
2018-07-24T16:19:02.404Z,39.60
2018-07-24T16:21:30.786Z,39.50
2018-07-24T16:23:59.264Z,39.40
2018-07-24T16:26:27.816Z,39.60
2018-07-24T16:28:56.331Z,39.90
2018-07-24T16:31:24.833Z,40.10
2018-07-24T16:33:53.152Z,39.90
2018-07-24T16:36:21.504Z,39.20
2018-07-24T16:38:50.385Z,40.10
2018-07-24T16:41:19.059Z,40.40
2018-07-24T16:46:44.606Z,40.00
2018-07-24T16:49:13.414Z,40.30
2018-07-24T16:54:21.772Z,40.40
2018-07-24T16:56:50.314Z,41.10
2018-07-24T16:59:18.940Z,41.30
2018-07-24T17:01:47.482Z,41.20
2018-07-24T17:04:19.714Z,41.30
2018-07-24T17:06:48.268Z,41.60
2018-07-24T17:09:16.549Z,41.70
2018-07-24T17:11:45.081Z,42.10
2018-07-24T17:14:29.013Z,42.30
2018-07-24T17:16:57.697Z,42.50
2018-07-24T17:21:55.152Z,42.90
2018-07-24T17:24:25.893Z,42.80
2018-07-24T17:26:54.823Z,42.90
2018-07-24T17:29:23.520Z,42.70
2018-07-24T17:31:53.981Z,42.50
2018-07-24T17:34:22.468Z,42.90
2018-07-24T17:36:51.059Z,43.10
2018-07-24T17:39:19.567Z,43.40
2018-07-24T17:41:47.913Z,43.50
2018-07-24T17:44:16.258Z,43.40
2018-07-24T17:46:44.625Z,43.60
2018-07-24T17:49:15.354Z,43.80
2018-07-24T17:51:44.020Z,43.90
2018-07-24T17:54:12.577Z,43.90
2018-07-24T17:56:40.955Z,44.20
2018-07-24T17:59:09.358Z,44.40
2018-07-24T18:01:38.773Z,44.50
2018-07-24T18:04:07.449Z,44.60
2018-07-24T18:06:35.943Z,45.00
2018-07-24T18:09:12.134Z,45.40
2018-07-24T18:11:40.663Z,45.70
2018-07-24T18:14:09.643Z,45.90
2018-07-24T18:16:41.427Z,46.10
2018-07-24T18:19:09.895Z,46.30
2018-07-24T18:21:38.517Z,46.50
2018-07-24T18:24:07.917Z,46.70
2018-07-24T18:29:08.229Z,47.20
2018-07-24T18:31:36.796Z,47.30
2018-07-24T18:34:06.818Z,47.50
2018-07-24T18:36:35.650Z,47.80
2018-07-24T18:39:06.125Z,48.50
2018-07-24T18:41:35.092Z,49.40
2018-07-24T18:44:03.787Z,49.80
2018-07-24T18:49:00.906Z,51.40
2018-07-24T18:51:29.492Z,51.70
2018-07-24T18:53:57.832Z,52.20
2018-07-24T18:56:27.805Z,52.60
2018-07-24T18:58:56.412Z,52.90
2018-07-24T19:01:24.653Z,53.40
2018-07-24T19:06:23.790Z,53.80
2018-07-24T19:08:52.459Z,54.30
2018-07-24T19:11:21.658Z,54.60
2018-07-24T19:13:50.559Z,54.70
2018-07-24T19:16:19.254Z,55.20
2018-07-24T19:18:48.324Z,55.30
2018-07-24T19:21:17.078Z,55.70
2018-07-24T19:23:51.837Z,56.10
2018-07-24T19:26:20.527Z,57.00
2018-07-24T19:28:49.294Z,56.80
2018-07-24T19:31:17.908Z,57.10
2018-07-24T19:33:46.443Z,57.50
2018-07-24T19:36:14.827Z,58.00
2018-07-24T19:38:43.474Z,58.40
2018-07-24T19:41:19.414Z,58.50
2018-07-24T19:43:48.018Z,58.90
2018-07-24T19:46:16.320Z,59.20
2018-07-24T19:51:14.727Z,59.80
2018-07-24T19:53:43.251Z,60.10
2018-07-24T19:56:11.583Z,60.50
2018-07-24T19:58:43.253Z,60.80
2018-07-24T20:01:11.525Z,61.00
2018-07-24T20:03:40.160Z,61.40
2018-07-24T20:06:13.129Z,61.70
2018-07-24T20:08:41.938Z,62.10
2018-07-24T20:11:10.759Z,62.30
2018-07-24T20:13:39.218Z,62.60
2018-07-24T20:18:37.698Z,64.00
2018-07-24T20:21:06.393Z,63.40
2018-07-24T20:23:35.569Z,63.70
2018-07-24T20:26:05.416Z,64.00
2018-07-24T20:28:33.854Z,64.20
2018-07-24T20:31:02.479Z,64.50
2018-07-24T20:33:31.790Z,64.60
2018-07-24T20:36:00.698Z,65.00
2018-07-24T20:38:29.812Z,65.10
2018-07-24T20:40:59.084Z,65.50
2018-07-24T20:43:27.795Z,65.70
2018-07-24T20:53:45.114Z,66.90
2018-07-24T20:56:13.953Z,66.60
2018-07-24T20:58:46.048Z,67.60
2018-07-24T21:01:16.497Z,67.90
2018-07-24T21:03:45.287Z,68.20
2018-07-24T21:06:16.149Z,68.70
2018-07-24T21:08:53.609Z,68.90
2018-07-24T21:11:25.715Z,69.10
2018-07-24T21:16:26.207Z,70.10
2018-07-24T21:18:54.949Z,70.60
2018-07-24T21:21:24.216Z,71.20
2018-07-24T21:24:06.220Z,71.50
2018-07-24T21:26:35.378Z,71.60
2018-07-24T21:29:04.687Z,72.00
2018-07-24T21:31:33.740Z,72.30
2018-07-24T21:34:02.819Z,72.50
2018-07-24T21:36:31.329Z,72.80
2018-07-24T21:38:59.831Z,73.30
2018-07-24T21:41:29.029Z,73.80
2018-07-24T21:43:57.976Z,74.20
2018-07-24T21:46:26.541Z,74.30
2018-07-24T21:48:55.150Z,74.20
2018-07-24T21:51:24.193Z,74.80
2018-07-24T21:54:03.705Z,75.00
2018-07-24T21:56:32.593Z,75.10
2018-07-24T21:59:00.997Z,75.60
2018-07-24T22:01:29.415Z,76.10
2018-07-24T22:03:57.707Z,76.20
2018-07-24T22:06:26.142Z,76.30
2018-07-24T22:08:58.574Z,76.40
2018-07-24T22:11:26.880Z,76.70
2018-07-24T22:13:55.192Z,76.70
2018-07-24T22:16:30.874Z,76.70
2018-07-24T22:18:59.136Z,77.60
2018-07-24T22:21:27.556Z,77.10
2018-07-24T22:23:56.056Z,77.50
2018-07-24T22:28:52.565Z,78.90
2018-07-24T22:31:20.637Z,79.40
2018-07-24T22:36:18.151Z,80.10
2018-07-24T22:38:46.769Z,80.70
2018-07-24T22:41:15.045Z,81.00
2018-07-24T22:43:43.133Z,81.20
2018-07-24T22:46:11.451Z,81.80
2018-07-24T22:48:39.727Z,83.30
2018-07-24T22:51:08.133Z,82.60
2018-07-24T22:53:36.521Z,82.00
2018-07-24T22:56:08.828Z,83.00
2018-07-24T22:58:37.210Z,83.20
2018-07-24T23:01:05.622Z,83.20
2018-07-24T23:03:33.930Z,83.60
2018-07-24T23:08:35.719Z,84.30
2018-07-24T23:11:04.149Z,84.70
2018-07-24T23:13:32.647Z,84.90
2018-07-24T23:16:07.673Z,85.50
2018-07-24T23:18:35.987Z,85.90
2018-07-24T23:23:32.461Z,86.60
2018-07-24T23:28:28.827Z,86.40
2018-07-24T23:30:57.080Z,87.30
2018-07-24T23:33:25.968Z,87.40
2018-07-24T23:35:54.167Z,87.70
2018-07-24T23:40:50.554Z,88.40
2018-07-24T23:43:18.934Z,88.70
2018-07-24T23:45:51.130Z,88.50
2018-07-24T23:48:19.530Z,88.60
2018-07-24T23:50:48.444Z,89.80
2018-07-24T23:53:16.938Z,89.10
2018-07-24T23:55:45.544Z,89.50
2018-07-24T23:58:14.001Z,89.80
